sensor_id;sensor_type;location;lat;lon;timestamp;P1;durP1;ratioP1;P2;durP2;ratioP2
57029;SDS011;42920;45.306;20.448;2023-07-31T00:01:45;8.65;;;5.00;;
57029;SDS011;42920;45.306;20.448;2023-07-31T00:04:10;11.90;;;5.75;;
57029;SDS011;42920;45.306;20.448;2023-07-31T00:06:36;10.80;;;6.10;;
57029;SDS011;42920;45.306;20.448;2023-07-31T00:09:02;8.90;;;5.68;;
57029;SDS011;42920;45.306;20.448;2023-07-31T00:11:27;7.25;;;5.50;;
57029;SDS011;42920;45.306;20.448;2023-07-31T00:13:53;10.35;;;6.53;;
57029;SDS011;42920;45.306;20.448;2023-07-31T00:16:19;7.30;;;5.88;;
57029;SDS011;42920;45.306;20.448;2023-07-31T00:18:45;8.27;;;5.53;;
57029;SDS011;42920;45.306;20.448;2023-07-31T00:21:10;9.75;;;5.90;;
57029;SDS011;42920;45.306;20.448;2023-07-31T00:23:36;8.88;;;5.85;;
57029;SDS011;42920;45.306;20.448;2023-07-31T00:26:02;9.80;;;6.45;;
57029;SDS011;42920;45.306;20.448;2023-07-31T00:28:27;8.07;;;6.07;;
57029;SDS011;42920;45.306;20.448;2023-07-31T00:30:53;8.35;;;5.85;;
57029;SDS011;42920;45.306;20.448;2023-07-31T00:33:19;10.63;;;5.63;;
57029;SDS011;42920;45.306;20.448;2023-07-31T00:35:45;11.57;;;5.47;;
57029;SDS011;42920;45.306;20.448;2023-07-31T00:38:10;9.93;;;6.20;;
57029;SDS011;42920;45.306;20.448;2023-07-31T00:40:36;10.05;;;6.25;;
57029;SDS011;42920;45.306;20.448;2023-07-31T00:43:03;8.55;;;6.05;;
57029;SDS011;42920;45.306;20.448;2023-07-31T00:45:28;7.78;;;5.55;;
57029;SDS011;42920;45.306;20.448;2023-07-31T00:47:55;7.63;;;5.90;;
57029;SDS011;42920;45.306;20.448;2023-07-31T00:50:22;7.35;;;5.72;;
57029;SDS011;42920;45.306;20.448;2023-07-31T00:52:49;7.65;;;5.53;;
57029;SDS011;42920;45.306;20.448;2023-07-31T00:55:15;10.30;;;5.68;;
57029;SDS011;42920;45.306;20.448;2023-07-31T00:57:42;12.20;;;5.40;;
57029;SDS011;42920;45.306;20.448;2023-07-31T01:00:09;9.43;;;5.65;;
57029;SDS011;42920;45.306;20.448;2023-07-31T01:02:35;10.50;;;5.95;;
57029;SDS011;42920;45.306;20.448;2023-07-31T01:05:01;10.30;;;5.95;;
57029;SDS011;42920;45.306;20.448;2023-07-31T01:10:04;9.30;;;6.07;;
57029;SDS011;42920;45.306;20.448;2023-07-31T01:12:45;10.13;;;6.07;;
57029;SDS011;42920;45.306;20.448;2023-07-31T01:15:13;9.55;;;6.28;;
57029;SDS011;42920;45.306;20.448;2023-07-31T01:17:42;9.13;;;5.20;;
57029;SDS011;42920;45.306;20.448;2023-07-31T01:20:10;6.82;;;4.82;;
57029;SDS011;42920;45.306;20.448;2023-07-31T01:27:59;7.85;;;4.95;;
57029;SDS011;42920;45.306;20.448;2023-07-31T01:30:32;9.85;;;6.10;;
57029;SDS011;42920;45.306;20.448;2023-07-31T01:33:00;9.38;;;5.90;;
57029;SDS011;42920;45.306;20.448;2023-07-31T01:35:32;7.90;;;5.57;;
57029;SDS011;42920;45.306;20.448;2023-07-31T01:38:01;7.60;;;5.82;;
57029;SDS011;42920;45.306;20.448;2023-07-31T01:40:27;9.32;;;6.82;;
57029;SDS011;42920;45.306;20.448;2023-07-31T01:42:53;8.27;;;6.00;;
57029;SDS011;42920;45.306;20.448;2023-07-31T01:45:19;9.07;;;6.03;;
57029;SDS011;42920;45.306;20.448;2023-07-31T01:47:45;10.07;;;6.15;;
57029;SDS011;42920;45.306;20.448;2023-07-31T01:50:10;9.98;;;6.35;;
57029;SDS011;42920;45.306;20.448;2023-07-31T01:52:36;10.60;;;7.25;;
57029;SDS011;42920;45.306;20.448;2023-07-31T01:55:02;9.85;;;7.15;;
57029;SDS011;42920;45.306;20.448;2023-07-31T01:57:28;12.07;;;7.70;;
57029;SDS011;42920;45.306;20.448;2023-07-31T01:59:53;11.80;;;8.48;;
57029;SDS011;42920;45.306;20.448;2023-07-31T02:02:19;12.30;;;7.68;;
57029;SDS011;42920;45.306;20.448;2023-07-31T02:04:45;11.55;;;7.70;;
57029;SDS011;42920;45.306;20.448;2023-07-31T02:07:11;12.45;;;7.72;;
57029;SDS011;42920;45.306;20.448;2023-07-31T02:09:37;10.05;;;7.72;;
57029;SDS011;42920;45.306;20.448;2023-07-31T02:12:03;11.88;;;8.00;;
57029;SDS011;42920;45.306;20.448;2023-07-31T02:14:29;11.80;;;7.80;;
57029;SDS011;42920;45.306;20.448;2023-07-31T02:16:54;16.95;;;8.65;;
57029;SDS011;42920;45.306;20.448;2023-07-31T02:19:20;15.23;;;8.98;;
57029;SDS011;42920;45.306;20.448;2023-07-31T02:21:46;15.27;;;9.13;;
57029;SDS011;42920;45.306;20.448;2023-07-31T02:24:11;11.48;;;8.07;;
57029;SDS011;42920;45.306;20.448;2023-07-31T02:26:37;13.52;;;8.70;;
57029;SDS011;42920;45.306;20.448;2023-07-31T02:29:03;15.95;;;8.57;;
57029;SDS011;42920;45.306;20.448;2023-07-31T02:31:28;18.02;;;8.93;;
57029;SDS011;42920;45.306;20.448;2023-07-31T02:33:54;13.95;;;8.95;;
57029;SDS011;42920;45.306;20.448;2023-07-31T02:36:19;11.70;;;7.68;;
57029;SDS011;42920;45.306;20.448;2023-07-31T02:38:45;14.60;;;8.80;;
57029;SDS011;42920;45.306;20.448;2023-07-31T02:41:11;15.40;;;8.27;;
57029;SDS011;42920;45.306;20.448;2023-07-31T02:43:37;15.50;;;8.38;;
57029;SDS011;42920;45.306;20.448;2023-07-31T02:46:02;11.65;;;8.07;;
57029;SDS011;42920;45.306;20.448;2023-07-31T02:48:28;12.27;;;7.57;;
57029;SDS011;42920;45.306;20.448;2023-07-31T02:50:54;12.10;;;8.00;;
57029;SDS011;42920;45.306;20.448;2023-07-31T02:53:19;13.50;;;7.50;;
57029;SDS011;42920;45.306;20.448;2023-07-31T02:55:45;15.45;;;8.57;;
57029;SDS011;42920;45.306;20.448;2023-07-31T02:58:11;13.88;;;8.00;;
57029;SDS011;42920;45.306;20.448;2023-07-31T03:00:41;14.85;;;8.70;;
57029;SDS011;42920;45.306;20.448;2023-07-31T03:03:07;13.75;;;8.13;;
57029;SDS011;42920;45.306;20.448;2023-07-31T03:05:33;10.43;;;7.30;;
57029;SDS011;42920;45.306;20.448;2023-07-31T03:07:59;12.02;;;7.10;;
57029;SDS011;42920;45.306;20.448;2023-07-31T03:10:24;12.77;;;7.43;;
57029;SDS011;42920;45.306;20.448;2023-07-31T03:12:50;15.35;;;7.25;;
57029;SDS011;42920;45.306;20.448;2023-07-31T03:15:15;13.65;;;7.03;;
57029;SDS011;42920;45.306;20.448;2023-07-31T03:17:41;10.65;;;6.60;;
57029;SDS011;42920;45.306;20.448;2023-07-31T03:20:07;18.77;;;7.28;;
57029;SDS011;42920;45.306;20.448;2023-07-31T03:22:33;13.30;;;6.78;;
57029;SDS011;42920;45.306;20.448;2023-07-31T03:25:00;11.15;;;6.55;;
57029;SDS011;42920;45.306;20.448;2023-07-31T03:27:26;10.20;;;6.47;;
57029;SDS011;42920;45.306;20.448;2023-07-31T03:29:52;10.63;;;6.10;;
57029;SDS011;42920;45.306;20.448;2023-07-31T03:32:18;11.50;;;5.93;;
57029;SDS011;42920;45.306;20.448;2023-07-31T03:34:43;9.57;;;5.65;;
57029;SDS011;42920;45.306;20.448;2023-07-31T03:37:09;8.20;;;6.35;;
57029;SDS011;42920;45.306;20.448;2023-07-31T03:39:35;8.10;;;5.72;;
57029;SDS011;42920;45.306;20.448;2023-07-31T03:42:00;12.77;;;6.93;;
57029;SDS011;42920;45.306;20.448;2023-07-31T03:44:26;7.78;;;5.63;;
57029;SDS011;42920;45.306;20.448;2023-07-31T03:46:52;13.05;;;5.70;;
57029;SDS011;42920;45.306;20.448;2023-07-31T03:49:17;11.40;;;5.70;;
57029;SDS011;42920;45.306;20.448;2023-07-31T03:51:43;8.98;;;5.45;;
57029;SDS011;42920;45.306;20.448;2023-07-31T03:54:09;8.57;;;5.82;;
57029;SDS011;42920;45.306;20.448;2023-07-31T03:56:35;7.32;;;6.00;;
57029;SDS011;42920;45.306;20.448;2023-07-31T03:59:01;9.98;;;5.72;;
57029;SDS011;42920;45.306;20.448;2023-07-31T04:01:26;10.00;;;6.25;;
57029;SDS011;42920;45.306;20.448;2023-07-31T04:03:52;7.93;;;5.28;;
57029;SDS011;42920;45.306;20.448;2023-07-31T04:06:18;9.40;;;5.85;;
57029;SDS011;42920;45.306;20.448;2023-07-31T04:08:44;15.48;;;6.07;;
57029;SDS011;42920;45.306;20.448;2023-07-31T04:11:10;8.63;;;6.03;;
57029;SDS011;42920;45.306;20.448;2023-07-31T04:13:37;8.07;;;5.72;;
57029;SDS011;42920;45.306;20.448;2023-07-31T04:16:03;12.80;;;6.13;;
57029;SDS011;42920;45.306;20.448;2023-07-31T04:18:29;10.68;;;7.45;;
57029;SDS011;42920;45.306;20.448;2023-07-31T04:20:56;8.40;;;5.90;;
57029;SDS011;42920;45.306;20.448;2023-07-31T04:23:23;8.32;;;5.85;;
57029;SDS011;42920;45.306;20.448;2023-07-31T04:25:49;7.90;;;5.45;;
57029;SDS011;42920;45.306;20.448;2023-07-31T04:28:15;9.82;;;5.78;;
57029;SDS011;42920;45.306;20.448;2023-07-31T04:30:41;9.10;;;5.88;;
57029;SDS011;42920;45.306;20.448;2023-07-31T04:33:06;13.20;;;6.25;;
57029;SDS011;42920;45.306;20.448;2023-07-31T04:35:32;7.55;;;5.63;;
57029;SDS011;42920;45.306;20.448;2023-07-31T04:37:58;8.85;;;5.70;;
57029;SDS011;42920;45.306;20.448;2023-07-31T04:40:23;9.57;;;6.30;;
57029;SDS011;42920;45.306;20.448;2023-07-31T04:42:49;10.75;;;6.75;;
57029;SDS011;42920;45.306;20.448;2023-07-31T04:45:15;11.13;;;7.32;;
57029;SDS011;42920;45.306;20.448;2023-07-31T04:47:40;9.73;;;6.88;;
57029;SDS011;42920;45.306;20.448;2023-07-31T04:50:06;9.60;;;6.13;;
57029;SDS011;42920;45.306;20.448;2023-07-31T04:52:32;9.70;;;6.25;;
57029;SDS011;42920;45.306;20.448;2023-07-31T04:54:58;8.20;;;6.30;;
57029;SDS011;42920;45.306;20.448;2023-07-31T04:57:23;11.07;;;6.43;;
57029;SDS011;42920;45.306;20.448;2023-07-31T04:59:49;11.07;;;6.95;;
57029;SDS011;42920;45.306;20.448;2023-07-31T05:02:15;8.88;;;6.90;;
57029;SDS011;42920;45.306;20.448;2023-07-31T05:04:41;10.32;;;7.20;;
57029;SDS011;42920;45.306;20.448;2023-07-31T05:07:06;9.45;;;6.40;;
57029;SDS011;42920;45.306;20.448;2023-07-31T05:09:32;8.45;;;6.38;;
57029;SDS011;42920;45.306;20.448;2023-07-31T05:11:58;14.68;;;7.53;;
57029;SDS011;42920;45.306;20.448;2023-07-31T05:14:23;8.23;;;6.10;;
57029;SDS011;42920;45.306;20.448;2023-07-31T05:16:49;8.93;;;6.72;;
57029;SDS011;42920;45.306;20.448;2023-07-31T05:19:15;10.50;;;6.10;;
57029;SDS011;42920;45.306;20.448;2023-07-31T05:21:40;10.10;;;6.18;;
57029;SDS011;42920;45.306;20.448;2023-07-31T05:24:06;8.55;;;6.20;;
57029;SDS011;42920;45.306;20.448;2023-07-31T05:26:32;8.70;;;6.63;;
57029;SDS011;42920;45.306;20.448;2023-07-31T05:28:57;10.93;;;7.22;;
57029;SDS011;42920;45.306;20.448;2023-07-31T05:31:23;12.25;;;7.03;;
57029;SDS011;42920;45.306;20.448;2023-07-31T05:33:49;10.98;;;7.55;;
57029;SDS011;42920;45.306;20.448;2023-07-31T05:36:16;12.57;;;7.25;;
57029;SDS011;42920;45.306;20.448;2023-07-31T05:38:42;9.45;;;7.00;;
57029;SDS011;42920;45.306;20.448;2023-07-31T05:41:09;8.85;;;6.80;;
57029;SDS011;42920;45.306;20.448;2023-07-31T05:43:36;12.50;;;6.60;;
57029;SDS011;42920;45.306;20.448;2023-07-31T05:46:02;11.40;;;7.28;;
57029;SDS011;42920;45.306;20.448;2023-07-31T05:48:28;9.88;;;6.82;;
57029;SDS011;42920;45.306;20.448;2023-07-31T05:50:54;12.40;;;7.70;;
57029;SDS011;42920;45.306;20.448;2023-07-31T05:53:19;11.20;;;6.43;;
57029;SDS011;42920;45.306;20.448;2023-07-31T05:55:45;10.27;;;7.30;;
57029;SDS011;42920;45.306;20.448;2023-07-31T05:58:11;10.18;;;7.18;;
57029;SDS011;42920;45.306;20.448;2023-07-31T06:00:36;11.55;;;6.97;;
57029;SDS011;42920;45.306;20.448;2023-07-31T06:03:02;13.55;;;7.40;;
57029;SDS011;42920;45.306;20.448;2023-07-31T06:05:28;8.95;;;6.53;;
57029;SDS011;42920;45.306;20.448;2023-07-31T06:07:55;11.43;;;7.22;;
57029;SDS011;42920;45.306;20.448;2023-07-31T06:10:21;9.63;;;6.63;;
57029;SDS011;42920;45.306;20.448;2023-07-31T06:12:46;9.52;;;6.35;;
57029;SDS011;42920;45.306;20.448;2023-07-31T06:15:12;8.55;;;6.45;;
57029;SDS011;42920;45.306;20.448;2023-07-31T06:17:38;10.05;;;6.53;;
57029;SDS011;42920;45.306;20.448;2023-07-31T06:20:05;8.65;;;5.82;;
57029;SDS011;42920;45.306;20.448;2023-07-31T06:22:31;8.70;;;5.30;;
57029;SDS011;42920;45.306;20.448;2023-07-31T06:24:57;9.60;;;5.07;;
57029;SDS011;42920;45.306;20.448;2023-07-31T06:27:23;11.70;;;4.70;;
57029;SDS011;42920;45.306;20.448;2023-07-31T06:29:49;8.55;;;4.95;;
57029;SDS011;42920;45.306;20.448;2023-07-31T06:32:15;6.65;;;4.30;;
57029;SDS011;42920;45.306;20.448;2023-07-31T06:34:40;6.78;;;4.47;;
57029;SDS011;42920;45.306;20.448;2023-07-31T06:37:06;9.95;;;5.63;;
57029;SDS011;42920;45.306;20.448;2023-07-31T06:39:32;7.63;;;4.13;;
57029;SDS011;42920;45.306;20.448;2023-07-31T06:41:57;9.63;;;4.97;;
57029;SDS011;42920;45.306;20.448;2023-07-31T06:44:23;8.05;;;4.82;;
57029;SDS011;42920;45.306;20.448;2023-07-31T06:46:49;14.15;;;4.93;;
57029;SDS011;42920;45.306;20.448;2023-07-31T06:49:14;7.45;;;4.57;;
57029;SDS011;42920;45.306;20.448;2023-07-31T06:51:40;7.75;;;4.40;;
57029;SDS011;42920;45.306;20.448;2023-07-31T06:54:07;9.23;;;5.10;;
57029;SDS011;42920;45.306;20.448;2023-07-31T06:56:33;7.78;;;4.53;;
57029;SDS011;42920;45.306;20.448;2023-07-31T06:58:59;6.63;;;4.70;;
57029;SDS011;42920;45.306;20.448;2023-07-31T07:01:25;9.80;;;4.47;;
57029;SDS011;42920;45.306;20.448;2023-07-31T07:03:50;8.68;;;4.20;;
57029;SDS011;42920;45.306;20.448;2023-07-31T07:06:19;5.90;;;3.88;;
57029;SDS011;42920;45.306;20.448;2023-07-31T07:08:45;9.43;;;3.65;;
57029;SDS011;42920;45.306;20.448;2023-07-31T07:11:11;7.28;;;3.53;;
57029;SDS011;42920;45.306;20.448;2023-07-31T07:13:36;7.05;;;3.80;;
57029;SDS011;42920;45.306;20.448;2023-07-31T07:16:02;4.82;;;3.83;;
57029;SDS011;42920;45.306;20.448;2023-07-31T07:18:28;7.22;;;3.75;;
57029;SDS011;42920;45.306;20.448;2023-07-31T07:20:54;5.55;;;3.75;;
57029;SDS011;42920;45.306;20.448;2023-07-31T07:23:20;7.18;;;3.83;;
57029;SDS011;42920;45.306;20.448;2023-07-31T07:25:46;9.55;;;3.72;;
57029;SDS011;42920;45.306;20.448;2023-07-31T07:28:13;9.52;;;4.45;;
57029;SDS011;42920;45.306;20.448;2023-07-31T07:30:39;6.35;;;4.00;;
57029;SDS011;42920;45.306;20.448;2023-07-31T07:33:05;9.65;;;6.35;;
57029;SDS011;42920;45.306;20.448;2023-07-31T07:35:33;7.45;;;5.38;;
57029;SDS011;42920;45.306;20.448;2023-07-31T07:37:59;6.90;;;4.55;;
57029;SDS011;42920;45.306;20.448;2023-07-31T07:40:26;5.18;;;3.78;;
57029;SDS011;42920;45.306;20.448;2023-07-31T07:42:52;6.22;;;4.00;;
57029;SDS011;42920;45.306;20.448;2023-07-31T07:45:17;9.45;;;3.90;;
57029;SDS011;42920;45.306;20.448;2023-07-31T07:47:43;6.47;;;3.38;;
57029;SDS011;42920;45.306;20.448;2023-07-31T07:50:09;5.28;;;3.55;;
57029;SDS011;42920;45.306;20.448;2023-07-31T07:52:35;8.43;;;4.35;;
57029;SDS011;42920;45.306;20.448;2023-07-31T07:55:00;6.00;;;3.42;;
57029;SDS011;42920;45.306;20.448;2023-07-31T07:57:26;5.15;;;3.17;;
57029;SDS011;42920;45.306;20.448;2023-07-31T07:59:53;5.40;;;3.38;;
57029;SDS011;42920;45.306;20.448;2023-07-31T08:02:19;4.97;;;3.22;;
57029;SDS011;42920;45.306;20.448;2023-07-31T08:04:44;5.28;;;2.90;;
57029;SDS011;42920;45.306;20.448;2023-07-31T08:07:10;5.50;;;3.90;;
57029;SDS011;42920;45.306;20.448;2023-07-31T08:09:37;7.45;;;3.05;;
57029;SDS011;42920;45.306;20.448;2023-07-31T08:12:03;4.90;;;3.03;;
57029;SDS011;42920;45.306;20.448;2023-07-31T08:14:29;5.32;;;2.60;;
57029;SDS011;42920;45.306;20.448;2023-07-31T08:16:55;4.40;;;2.92;;
57029;SDS011;42920;45.306;20.448;2023-07-31T08:19:21;5.88;;;2.95;;
57029;SDS011;42920;45.306;20.448;2023-07-31T08:21:47;4.05;;;2.67;;
57029;SDS011;42920;45.306;20.448;2023-07-31T08:24:12;8.02;;;2.88;;
57029;SDS011;42920;45.306;20.448;2023-07-31T08:26:38;4.38;;;2.83;;
57029;SDS011;42920;45.306;20.448;2023-07-31T08:29:04;4.38;;;2.90;;
57029;SDS011;42920;45.306;20.448;2023-07-31T08:31:30;4.65;;;2.60;;
57029;SDS011;42920;45.306;20.448;2023-07-31T08:33:55;3.63;;;2.42;;
57029;SDS011;42920;45.306;20.448;2023-07-31T08:36:21;4.35;;;2.92;;
57029;SDS011;42920;45.306;20.448;2023-07-31T08:38:47;5.20;;;3.38;;
57029;SDS011;42920;45.306;20.448;2023-07-31T08:41:13;3.53;;;2.40;;
57029;SDS011;42920;45.306;20.448;2023-07-31T08:43:39;4.43;;;2.53;;
57029;SDS011;42920;45.306;20.448;2023-07-31T08:46:04;5.88;;;2.67;;
57029;SDS011;42920;45.306;20.448;2023-07-31T08:48:31;4.18;;;2.65;;
57029;SDS011;42920;45.306;20.448;2023-07-31T08:50:58;4.03;;;2.65;;
57029;SDS011;42920;45.306;20.448;2023-07-31T08:53:23;5.32;;;2.50;;
57029;SDS011;42920;45.306;20.448;2023-07-31T08:55:50;3.53;;;2.30;;
57029;SDS011;42920;45.306;20.448;2023-07-31T08:58:19;6.15;;;2.70;;
57029;SDS011;42920;45.306;20.448;2023-07-31T09:00:46;4.97;;;2.20;;
57029;SDS011;42920;45.306;20.448;2023-07-31T09:03:15;3.80;;;1.98;;
57029;SDS011;42920;45.306;20.448;2023-07-31T09:05:46;8.48;;;2.90;;
57029;SDS011;42920;45.306;20.448;2023-07-31T09:08:12;3.40;;;2.42;;
57029;SDS011;42920;45.306;20.448;2023-07-31T09:10:43;4.15;;;2.33;;
57029;SDS011;42920;45.306;20.448;2023-07-31T09:13:13;7.00;;;2.22;;
57029;SDS011;42920;45.306;20.448;2023-07-31T09:15:39;4.68;;;2.15;;
57029;SDS011;42920;45.306;20.448;2023-07-31T09:18:09;6.53;;;2.80;;
57029;SDS011;42920;45.306;20.448;2023-07-31T09:20:35;4.97;;;2.42;;
57029;SDS011;42920;45.306;20.448;2023-07-31T09:23:11;3.80;;;2.22;;
57029;SDS011;42920;45.306;20.448;2023-07-31T09:25:38;5.78;;;2.20;;
57029;SDS011;42920;45.306;20.448;2023-07-31T09:28:08;4.15;;;2.50;;
57029;SDS011;42920;45.306;20.448;2023-07-31T09:30:44;4.78;;;2.70;;
57029;SDS011;42920;45.306;20.448;2023-07-31T09:33:20;5.20;;;2.60;;
57029;SDS011;42920;45.306;20.448;2023-07-31T09:35:46;8.18;;;2.90;;
57029;SDS011;42920;45.306;20.448;2023-07-31T09:38:13;3.88;;;2.25;;
57029;SDS011;42920;45.306;20.448;2023-07-31T09:40:43;4.75;;;2.20;;
57029;SDS011;42920;45.306;20.448;2023-07-31T09:43:11;11.75;;;3.05;;
57029;SDS011;42920;45.306;20.448;2023-07-31T09:45:38;3.20;;;2.10;;
57029;SDS011;42920;45.306;20.448;2023-07-31T09:48:09;6.00;;;2.42;;
57029;SDS011;42920;45.306;20.448;2023-07-31T09:50:45;6.70;;;2.47;;
57029;SDS011;42920;45.306;20.448;2023-07-31T09:53:12;3.45;;;2.20;;
57029;SDS011;42920;45.306;20.448;2023-07-31T09:55:39;3.53;;;2.40;;
57029;SDS011;42920;45.306;20.448;2023-07-31T09:58:09;5.95;;;2.25;;
57029;SDS011;42920;45.306;20.448;2023-07-31T10:00:36;5.25;;;2.50;;
57029;SDS011;42920;45.306;20.448;2023-07-31T10:03:06;3.92;;;2.63;;
57029;SDS011;42920;45.306;20.448;2023-07-31T10:05:42;3.67;;;2.22;;
57029;SDS011;42920;45.306;20.448;2023-07-31T10:08:13;8.15;;;2.25;;
57029;SDS011;42920;45.306;20.448;2023-07-31T10:10:44;3.88;;;2.55;;
57029;SDS011;42920;45.306;20.448;2023-07-31T10:13:10;3.55;;;2.35;;
57029;SDS011;42920;45.306;20.448;2023-07-31T10:15:37;6.78;;;2.20;;
57029;SDS011;42920;45.306;20.448;2023-07-31T10:18:05;5.10;;;1.92;;
57029;SDS011;42920;45.306;20.448;2023-07-31T10:20:32;6.30;;;2.25;;
57029;SDS011;42920;45.306;20.448;2023-07-31T10:22:58;3.95;;;2.08;;
57029;SDS011;42920;45.306;20.448;2023-07-31T10:25:26;3.97;;;2.25;;
57029;SDS011;42920;45.306;20.448;2023-07-31T10:27:52;5.97;;;2.60;;
57029;SDS011;42920;45.306;20.448;2023-07-31T10:30:20;5.15;;;2.50;;
57029;SDS011;42920;45.306;20.448;2023-07-31T10:32:50;5.18;;;2.17;;
57029;SDS011;42920;45.306;20.448;2023-07-31T10:35:17;8.35;;;2.88;;
57029;SDS011;42920;45.306;20.448;2023-07-31T10:37:43;4.47;;;2.28;;
57029;SDS011;42920;45.306;20.448;2023-07-31T10:40:10;12.52;;;2.60;;
57029;SDS011;42920;45.306;20.448;2023-07-31T10:42:37;5.53;;;1.88;;
57029;SDS011;42920;45.306;20.448;2023-07-31T10:45:10;3.38;;;2.13;;
57029;SDS011;42920;45.306;20.448;2023-07-31T10:47:37;5.22;;;2.80;;
57029;SDS011;42920;45.306;20.448;2023-07-31T10:50:14;5.55;;;2.38;;
57029;SDS011;42920;45.306;20.448;2023-07-31T10:52:49;3.33;;;2.03;;
57029;SDS011;42920;45.306;20.448;2023-07-31T10:55:32;5.95;;;2.05;;
57029;SDS011;42920;45.306;20.448;2023-07-31T10:58:12;4.22;;;2.40;;
57029;SDS011;42920;45.306;20.448;2023-07-31T11:00:40;3.50;;;2.33;;
57029;SDS011;42920;45.306;20.448;2023-07-31T11:05:51;4.75;;;2.30;;
57029;SDS011;42920;45.306;20.448;2023-07-31T11:08:23;5.32;;;2.67;;
57029;SDS011;42920;45.306;20.448;2023-07-31T11:15:53;4.95;;;2.20;;
57029;SDS011;42920;45.306;20.448;2023-07-31T11:18:19;5.18;;;2.35;;
57029;SDS011;42920;45.306;20.448;2023-07-31T11:20:44;5.38;;;2.30;;
57029;SDS011;42920;45.306;20.448;2023-07-31T11:23:10;3.00;;;2.13;;
57029;SDS011;42920;45.306;20.448;2023-07-31T11:25:39;3.80;;;2.08;;
57029;SDS011;42920;45.306;20.448;2023-07-31T11:28:08;4.53;;;2.10;;
57029;SDS011;42920;45.306;20.448;2023-07-31T11:30:35;3.22;;;1.77;;
57029;SDS011;42920;45.306;20.448;2023-07-31T11:33:01;5.07;;;2.15;;
57029;SDS011;42920;45.306;20.448;2023-07-31T11:35:29;4.22;;;2.25;;
57029;SDS011;42920;45.306;20.448;2023-07-31T11:37:56;4.22;;;2.25;;
57029;SDS011;42920;45.306;20.448;2023-07-31T11:40:22;5.72;;;2.25;;
57029;SDS011;42920;45.306;20.448;2023-07-31T11:42:47;6.25;;;2.35;;
57029;SDS011;42920;45.306;20.448;2023-07-31T11:45:13;4.82;;;2.20;;
57029;SDS011;42920;45.306;20.448;2023-07-31T11:47:39;3.85;;;2.10;;
57029;SDS011;42920;45.306;20.448;2023-07-31T11:50:06;4.35;;;2.17;;
57029;SDS011;42920;45.306;20.448;2023-07-31T11:52:38;5.25;;;2.22;;
57029;SDS011;42920;45.306;20.448;2023-07-31T11:55:07;4.80;;;2.50;;
57029;SDS011;42920;45.306;20.448;2023-07-31T11:57:38;4.50;;;2.22;;
57029;SDS011;42920;45.306;20.448;2023-07-31T12:00:07;6.20;;;2.50;;
57029;SDS011;42920;45.306;20.448;2023-07-31T12:02:36;7.15;;;2.60;;
57029;SDS011;42920;45.306;20.448;2023-07-31T12:05:04;4.03;;;2.20;;
57029;SDS011;42920;45.306;20.448;2023-07-31T12:07:46;5.68;;;2.80;;
57029;SDS011;42920;45.306;20.448;2023-07-31T12:10:30;7.75;;;2.60;;
57029;SDS011;42920;45.306;20.448;2023-07-31T12:13:01;7.80;;;2.40;;
57029;SDS011;42920;45.306;20.448;2023-07-31T12:18:00;4.22;;;2.03;;
57029;SDS011;42920;45.306;20.448;2023-07-31T12:20:29;6.55;;;2.20;;
57029;SDS011;42920;45.306;20.448;2023-07-31T12:22:56;3.78;;;1.95;;
57029;SDS011;42920;45.306;20.448;2023-07-31T12:25:23;5.55;;;2.35;;
57029;SDS011;42920;45.306;20.448;2023-07-31T12:27:53;5.72;;;2.70;;
57029;SDS011;42920;45.306;20.448;2023-07-31T12:30:32;5.65;;;2.33;;
57029;SDS011;42920;45.306;20.448;2023-07-31T12:33:06;8.45;;;2.30;;
57029;SDS011;42920;45.306;20.448;2023-07-31T12:35:38;5.75;;;2.30;;
57029;SDS011;42920;45.306;20.448;2023-07-31T12:38:10;8.82;;;2.50;;
57029;SDS011;42920;45.306;20.448;2023-07-31T12:40:40;4.30;;;2.03;;
57029;SDS011;42920;45.306;20.448;2023-07-31T12:43:06;4.63;;;2.00;;
57029;SDS011;42920;45.306;20.448;2023-07-31T12:45:33;5.00;;;2.25;;
57029;SDS011;42920;45.306;20.448;2023-07-31T12:47:59;4.03;;;1.73;;
57029;SDS011;42920;45.306;20.448;2023-07-31T12:50:25;4.22;;;2.05;;
57029;SDS011;42920;45.306;20.448;2023-07-31T12:52:51;4.93;;;2.08;;
57029;SDS011;42920;45.306;20.448;2023-07-31T12:55:20;6.85;;;2.95;;
57029;SDS011;42920;45.306;20.448;2023-07-31T12:57:46;8.35;;;4.60;;
57029;SDS011;42920;45.306;20.448;2023-07-31T13:00:12;6.15;;;3.33;;
57029;SDS011;42920;45.306;20.448;2023-07-31T13:02:38;5.65;;;2.65;;
57029;SDS011;42920;45.306;20.448;2023-07-31T13:05:04;5.28;;;2.25;;
57029;SDS011;42920;45.306;20.448;2023-07-31T13:07:30;4.65;;;2.00;;
57029;SDS011;42920;45.306;20.448;2023-07-31T13:10:01;6.25;;;2.08;;
57029;SDS011;42920;45.306;20.448;2023-07-31T13:12:28;5.85;;;2.22;;
57029;SDS011;42920;45.306;20.448;2023-07-31T13:14:54;6.43;;;2.42;;
57029;SDS011;42920;45.306;20.448;2023-07-31T13:17:19;5.45;;;2.35;;
57029;SDS011;42920;45.306;20.448;2023-07-31T13:19:45;6.00;;;2.33;;
57029;SDS011;42920;45.306;20.448;2023-07-31T13:22:11;7.15;;;2.10;;
57029;SDS011;42920;45.306;20.448;2023-07-31T13:24:36;7.10;;;1.98;;
57029;SDS011;42920;45.306;20.448;2023-07-31T13:27:02;3.60;;;1.98;;
57029;SDS011;42920;45.306;20.448;2023-07-31T13:29:29;3.75;;;2.22;;
57029;SDS011;42920;45.306;20.448;2023-07-31T13:31:55;5.35;;;2.72;;
57029;SDS011;42920;45.306;20.448;2023-07-31T13:34:21;9.95;;;3.22;;
57029;SDS011;42920;45.306;20.448;2023-07-31T13:36:46;5.18;;;2.15;;
57029;SDS011;42920;45.306;20.448;2023-07-31T13:39:12;4.55;;;2.25;;
57029;SDS011;42920;45.306;20.448;2023-07-31T13:41:38;8.43;;;2.40;;
57029;SDS011;42920;45.306;20.448;2023-07-31T13:44:03;5.28;;;2.05;;
57029;SDS011;42920;45.306;20.448;2023-07-31T13:46:29;5.88;;;2.40;;
57029;SDS011;42920;45.306;20.448;2023-07-31T13:48:55;5.30;;;2.13;;
57029;SDS011;42920;45.306;20.448;2023-07-31T13:51:21;4.03;;;1.92;;
57029;SDS011;42920;45.306;20.448;2023-07-31T13:53:47;5.68;;;2.40;;
57029;SDS011;42920;45.306;20.448;2023-07-31T13:56:13;3.13;;;2.00;;
57029;SDS011;42920;45.306;20.448;2023-07-31T13:58:39;6.35;;;2.28;;
57029;SDS011;42920;45.306;20.448;2023-07-31T14:01:04;6.60;;;2.22;;
57029;SDS011;42920;45.306;20.448;2023-07-31T14:03:30;9.70;;;2.83;;
57029;SDS011;42920;45.306;20.448;2023-07-31T14:05:56;7.38;;;2.20;;
57029;SDS011;42920;45.306;20.448;2023-07-31T14:08:22;6.22;;;2.80;;
57029;SDS011;42920;45.306;20.448;2023-07-31T14:10:48;7.38;;;2.10;;
57029;SDS011;42920;45.306;20.448;2023-07-31T14:13:14;4.18;;;2.30;;
57029;SDS011;42920;45.306;20.448;2023-07-31T14:15:41;35.17;;;3.67;;
57029;SDS011;42920;45.306;20.448;2023-07-31T14:18:08;5.10;;;2.25;;
57029;SDS011;42920;45.306;20.448;2023-07-31T14:20:33;5.90;;;2.38;;
57029;SDS011;42920;45.306;20.448;2023-07-31T14:22:59;3.58;;;2.10;;
57029;SDS011;42920;45.306;20.448;2023-07-31T14:25:26;5.38;;;2.50;;
57029;SDS011;42920;45.306;20.448;2023-07-31T14:27:51;5.35;;;2.28;;
57029;SDS011;42920;45.306;20.448;2023-07-31T14:30:17;4.22;;;1.90;;
57029;SDS011;42920;45.306;20.448;2023-07-31T14:32:43;8.88;;;2.42;;
57029;SDS011;42920;45.306;20.448;2023-07-31T14:35:09;19.92;;;10.02;;
57029;SDS011;42920;45.306;20.448;2023-07-31T14:37:42;10.38;;;2.25;;
57029;SDS011;42920;45.306;20.448;2023-07-31T14:40:09;6.35;;;2.30;;
57029;SDS011;42920;45.306;20.448;2023-07-31T14:42:36;3.08;;;1.88;;
57029;SDS011;42920;45.306;20.448;2023-07-31T14:45:06;6.97;;;2.90;;
57029;SDS011;42920;45.306;20.448;2023-07-31T14:47:32;3.53;;;2.13;;